Time;durP1;ratioP1;P1;durP2;ratioP2;P2;SDS_P1;SDS_P2;PMS_P1;PMS_P2;Temp;Humidity;BMP_temperature;BMP_pressure;BME280_temperature;BME280_humidity;BME280_pressure;Samples;Min_cycle;Max_cycle;Signal;HPM_P1;HPM_P2
2021/08/29 00:02:45;;;;;;;1.90;1.33;;;13.30;99.90;;;;;;6296402;28;20285;-67
2021/08/29 00:05:47;;;;;;;1.87;1.70;;;13.30;99.90;;;;;;6274963;28;20691;-66
2021/08/29 00:08:50;;;;;;;1.33;1.23;;;13.30;99.90;;;;;;6296244;28;20205;-67
2021/08/29 00:11:53;;;;;;;2.67;1.63;;;13.30;99.90;;;;;;6297454;28;20698;-67
2021/08/29 00:14:55;;;;;;;2.17;1.63;;;13.30;99.90;;;;;;6287313;28;20196;-67
2021/08/29 00:17:57;;;;;;;2.73;2.37;;;13.30;99.90;;;;;;6290899;28;20228;-66
2021/08/29 00:21:00;;;;;;;5.23;3.50;;;13.30;99.90;;;;;;6297462;28;20255;-66
2021/08/29 00:24:03;;;;;;;1.93;1.73;;;13.30;99.90;;;;;;6297525;28;20198;-67
2021/08/29 00:27:05;;;;;;;2.40;2.20;;;13.30;99.90;;;;;;6295997;28;20263;-66
2021/08/29 00:30:08;;;;;;;3.40;2.80;;;13.30;99.90;;;;;;6295898;28;20199;-66
2021/08/29 00:33:11;;;;;;;4.00;2.40;;;13.30;99.90;;;;;;6276296;28;20674;-66
2021/08/29 00:36:13;;;;;;;5.27;4.73;;;13.40;99.90;;;;;;6295720;28;20280;-67
2021/08/29 00:39:17;;;;;;;4.27;3.87;;;13.40;99.90;;;;;;6296766;28;20211;-66
2021/08/29 00:42:19;;;;;;;2.97;2.60;;;13.40;99.90;;;;;;6295294;28;20559;-66
2021/08/29 00:45:26;;;;;;;2.43;2.23;;;13.40;99.90;;;;;;6295444;28;20565;-66
2021/08/29 00:48:29;;;;;;;3.40;3.10;;;13.40;99.90;;;;;;6295008;28;20199;-66
2021/08/29 00:51:34;;;;;;;285.73;214.93;;;13.40;99.90;;;;;;6296886;28;20198;-66
2021/08/29 00:54:38;;;;;;;16.60;13.33;;;13.40;99.90;;;;;;6295443;28;20267;-67
2021/08/29 00:57:42;;;;;;;8.03;6.30;;;13.40;99.90;;;;;;6295437;28;20208;-66
2021/08/29 01:00:46;;;;;;;4.60;4.20;;;13.40;99.90;;;;;;6296909;28;20311;-67
2021/08/29 01:03:55;;;;;;;11.63;8.90;;;13.40;99.90;;;;;;6285477;28;20198;-66
2021/08/29 01:07:06;;;;;;;5.23;4.00;;;13.40;99.90;;;;;;6295410;28;20669;-66
2021/08/29 01:10:34;;;;;;;6.37;5.47;;;13.40;99.90;;;;;;6295456;28;20189;-66
2021/08/29 01:13:49;;;;;;;50.27;34.07;;;13.40;99.90;;;;;;6294699;28;20195;-66
2021/08/29 01:16:59;;;;;;;9.83;7.70;;;13.40;99.90;;;;;;6293341;28;20237;-67
2021/08/29 01:23:27;;;;;;;6.80;5.20;;;13.40;99.90;;;;;;6276028;28;20279;-80
2021/08/29 01:26:43;;;;;;;6.50;5.30;;;13.40;99.90;;;;;;6273631;28;20186;-80
2021/08/29 01:29:45;;;;;;;9.17;6.83;;;13.40;99.90;;;;;;6272456;28;20203;-80
2021/08/29 01:32:50;;;;;;;5.10;4.60;;;13.40;99.90;;;;;;6265599;28;20274;-79
2021/08/29 01:35:53;;;;;;;5.33;3.90;;;13.40;99.90;;;;;;6282798;28;20651;-79
2021/08/29 01:38:56;;;;;;;10.70;7.67;;;13.40;99.90;;;;;;6272270;28;20195;-80
2021/08/29 01:41:59;;;;;;;4.70;4.20;;;13.40;99.90;;;;;;6274587;28;20238;-80
2021/08/29 01:45:03;;;;;;;5.00;3.70;;;13.40;99.90;;;;;;6292377;28;20559;-80
2021/08/29 01:48:07;;;;;;;3.87;3.57;;;13.40;99.90;;;;;;6279883;28;20216;-80
2021/08/29 01:51:31;;;;;;;4.20;3.80;;;13.40;99.90;;;;;;6280689;28;20200;-80
2021/08/29 01:54:46;;;;;;;4.37;3.83;;;13.40;99.90;;;;;;6276223;28;20205;-80
2021/08/29 01:57:56;;;;;;;4.00;3.60;;;13.40;99.90;;;;;;6278453;28;20195;-80
2021/08/29 02:01:10;;;;;;;3.83;3.00;;;13.30;99.90;;;;;;6287549;28;20250;-80
2021/08/29 02:04:13;;;;;;;3.43;3.13;;;13.30;99.90;;;;;;6255940;28;20202;-79
2021/08/29 02:07:34;;;;;;;3.37;2.57;;;13.30;99.90;;;;;;6254650;28;20241;-79
2021/08/29 02:11:04;;;;;;;7.20;5.27;;;13.30;99.90;;;;;;6285349;28;20637;-80
2021/08/29 02:14:14;;;;;;;5.37;3.50;;;13.30;99.90;;;;;;6265415;28;20290;-80
2021/08/29 02:17:18;;;;;;;2.77;2.57;;;13.30;99.90;;;;;;6286936;28;20652;-80
2021/08/29 02:20:24;;;;;;;3.03;2.83;;;13.30;99.90;;;;;;6272596;28;20566;-80
2021/08/29 02:23:29;;;;;;;5.03;4.30;;;13.30;99.90;;;;;;6291705;28;20197;-80
2021/08/29 02:26:32;;;;;;;3.57;2.90;;;13.30;99.90;;;;;;6282425;28;20183;-79
2021/08/29 02:29:45;;;;;;;4.10;3.67;;;13.30;99.90;;;;;;6276842;28;20202;-79
2021/08/29 02:32:52;;;;;;;2.83;2.57;;;13.30;99.90;;;;;;6261274;28;20343;-80
2021/08/29 02:35:59;;;;;;;3.10;2.87;;;13.20;99.90;;;;;;6293100;28;20199;-80
2021/08/29 02:39:06;;;;;;;2.70;2.50;;;13.30;99.90;;;;;;6277911;28;20704;-79
2021/08/29 02:42:10;;;;;;;3.03;2.83;;;13.20;99.90;;;;;;6278412;28;20215;-77
2021/08/29 02:45:19;;;;;;;4.80;3.77;;;13.20;99.90;;;;;;6242704;28;20206;-78
2021/08/29 02:48:22;;;;;;;3.37;2.47;;;13.20;99.90;;;;;;6251427;28;20275;-77
2021/08/29 02:51:25;;;;;;;2.90;2.70;;;13.20;99.90;;;;;;6277338;28;20198;-78
2021/08/29 02:54:29;;;;;;;5.23;3.20;;;13.20;99.90;;;;;;6276107;28;20215;-77
2021/08/29 02:57:34;;;;;;;4.93;3.63;;;13.20;99.90;;;;;;6276141;28;20203;-77
2021/08/29 03:01:10;;;;;;;4.03;3.30;;;13.20;99.90;;;;;;6255311;28;20269;-77
2021/08/29 03:04:31;;;;;;;9.30;6.30;;;13.20;99.90;;;;;;6263292;28;20334;-78
2021/08/29 03:07:37;;;;;;;4.20;3.80;;;13.10;99.90;;;;;;6278953;28;20199;-79
2021/08/29 03:10:40;;;;;;;3.23;2.93;;;13.10;99.90;;;;;;6275250;28;20551;-78
2021/08/29 03:13:43;;;;;;;3.53;3.23;;;13.10;99.90;;;;;;6274445;28;20288;-79
2021/08/29 03:16:46;;;;;;;5.10;3.93;;;13.10;99.90;;;;;;6281776;28;20194;-78
2021/08/29 03:20:09;;;;;;;22.23;16.60;;;13.10;99.90;;;;;;6268139;28;20218;-78
2021/08/29 03:23:26;;;;;;;4.93;4.43;;;13.10;99.90;;;;;;6276127;28;20230;-78
2021/08/29 03:26:29;;;;;;;9.27;7.53;;;13.10;99.90;;;;;;6256975;28;20277;-78
2021/08/29 03:29:40;;;;;;;14.47;11.13;;;13.10;99.90;;;;;;6273127;28;20337;-78
2021/08/29 03:32:43;;;;;;;7.93;7.13;;;13.00;99.90;;;;;;6255487;28;20218;-78
2021/08/29 03:35:56;;;;;;;5.43;4.93;;;13.00;99.90;;;;;;6253029;28;20194;-78
2021/08/29 03:39:00;;;;;;;5.30;4.80;;;13.00;99.90;;;;;;6273111;28;20285;-77
2021/08/29 03:42:04;;;;;;;5.03;4.53;;;12.90;99.90;;;;;;6272983;28;20288;-77
2021/08/29 03:45:08;;;;;;;5.10;3.97;;;12.90;99.90;;;;;;6273157;28;20205;-78
2021/08/29 03:48:11;;;;;;;3.70;3.40;;;12.90;99.90;;;;;;6273022;28;20664;-77
2021/08/29 03:51:16;;;;;;;6.93;4.50;;;12.80;99.90;;;;;;6272935;28;20205;-78
2021/08/29 03:54:21;;;;;;;4.23;3.83;;;12.80;99.90;;;;;;6273324;28;20198;-78
2021/08/29 03:57:27;;;;;;;3.37;3.13;;;12.80;99.90;;;;;;6277259;28;20206;-77
2021/08/29 04:00:30;;;;;;;3.27;2.97;;;12.80;99.90;;;;;;6265968;28;20216;-78
2021/08/29 04:03:40;;;;;;;3.43;3.20;;;12.80;99.90;;;;;;6271216;28;20277;-78
2021/08/29 04:06:58;;;;;;;3.47;3.17;;;12.70;99.90;;;;;;6287615;28;20195;-79
2021/08/29 04:10:08;;;;;;;3.63;3.33;;;12.70;99.90;;;;;;6286159;28;20201;-78
2021/08/29 04:13:15;;;;;;;5.40;3.53;;;12.70;99.90;;;;;;6274169;28;20200;-79
2021/08/29 04:16:41;;;;;;;3.63;3.33;;;12.70;99.90;;;;;;6260659;28;20214;-78
2021/08/29 04:20:14;;;;;;;3.47;3.10;;;12.70;99.90;;;;;;6240619;28;20250;-79
2021/08/29 04:23:17;;;;;;;2.60;2.40;;;12.60;99.90;;;;;;6229091;28;20319;-78
2021/08/29 04:26:19;;;;;;;2.97;2.77;;;12.70;99.90;;;;;;6252444;28;20213;-78
2021/08/29 04:29:22;;;;;;;2.80;2.60;;;12.70;99.90;;;;;;6247578;28;20223;-78
2021/08/29 04:32:25;;;;;;;7.40;3.17;;;12.70;99.90;;;;;;6272945;28;20229;-79
2021/08/29 04:35:28;;;;;;;2.80;2.60;;;12.70;99.90;;;;;;6275235;28;20614;-79
2021/08/29 04:38:33;;;;;;;3.33;2.80;;;12.70;99.90;;;;;;6293698;28;20208;-79
2021/08/29 04:41:36;;;;;;;2.63;2.43;;;12.70;99.90;;;;;;6274340;28;20214;-79
2021/08/29 04:44:38;;;;;;;2.77;2.40;;;12.80;99.90;;;;;;6271186;28;20230;-79
2021/08/29 04:47:40;;;;;;;2.60;2.40;;;12.80;99.90;;;;;;6294542;28;20198;-78
2021/08/29 04:50:43;;;;;;;3.37;3.07;;;12.90;99.90;;;;;;6291195;28;20222;-78
2021/08/29 04:53:48;;;;;;;2.90;2.60;;;12.90;99.90;;;;;;6287996;28;20206;-79
2021/08/29 04:56:50;;;;;;;2.73;2.53;;;12.90;99.90;;;;;;6276095;28;20343;-78
2021/08/29 04:59:53;;;;;;;3.00;2.70;;;12.90;99.90;;;;;;6273211;28;20234;-78
2021/08/29 05:02:56;;;;;;;3.53;3.13;;;12.90;99.90;;;;;;6256638;28;20206;-78
2021/08/29 05:05:59;;;;;;;3.07;2.80;;;13.00;99.90;;;;;;6263501;28;20340;-78
2021/08/29 05:09:04;;;;;;;2.77;2.50;;;13.00;99.90;;;;;;6266738;28;20221;-78
2021/08/29 05:12:07;;;;;;;3.03;2.60;;;13.00;99.90;;;;;;6253765;28;20292;-77
2021/08/29 05:15:11;;;;;;;2.47;2.27;;;13.00;99.90;;;;;;6271211;28;20210;-79
2021/08/29 05:18:13;;;;;;;2.70;2.50;;;13.00;99.90;;;;;;6274270;28;20207;-78
2021/08/29 05:21:28;;;;;;;2.67;2.37;;;13.10;99.90;;;;;;6262091;28;20323;-78
2021/08/29 05:24:45;;;;;;;2.80;2.53;;;13.10;99.90;;;;;;6252625;28;20196;-78
2021/08/29 05:27:50;;;;;;;3.30;3.00;;;13.10;99.90;;;;;;6262790;28;20217;-78
2021/08/29 05:30:55;;;;;;;3.27;2.97;;;13.20;99.90;;;;;;6270506;28;20363;-78
2021/08/29 05:33:57;;;;;;;3.00;2.80;;;13.20;99.90;;;;;;6275793;28;20213;-79
2021/08/29 05:37:00;;;;;;;3.00;2.80;;;13.30;99.90;;;;;;6279193;28;20254;-78
2021/08/29 05:40:10;;;;;;;3.00;2.70;;;13.30;99.90;;;;;;6260982;28;20282;-78
2021/08/29 05:43:34;;;;;;;2.57;2.33;;;13.30;99.90;;;;;;6279598;28;20198;-79
2021/08/29 05:46:41;;;;;;;2.60;2.27;;;13.40;99.90;;;;;;6274648;28;20196;-79
2021/08/29 05:49:44;;;;;;;4.03;2.60;;;13.40;99.90;;;;;;6274758;28;20558;-79
2021/08/29 05:52:46;;;;;;;2.60;2.40;;;13.50;99.90;;;;;;6274396;28;20283;-79
2021/08/29 05:55:49;;;;;;;3.00;2.57;;;13.50;99.90;;;;;;6276151;28;20206;-78
2021/08/29 05:58:51;;;;;;;2.67;2.47;;;13.50;99.90;;;;;;6274306;28;20240;-78
2021/08/29 06:01:55;;;;;;;3.70;2.97;;;13.60;99.90;;;;;;6244560;28;20213;-78
2021/08/29 06:05:01;;;;;;;2.77;2.57;;;13.70;99.90;;;;;;6277024;28;20256;-75
2021/08/29 06:08:13;;;;;;;3.27;2.77;;;13.80;99.90;;;;;;6250564;28;20204;-74
2021/08/29 06:11:16;;;;;;;2.13;1.97;;;13.90;99.90;;;;;;6271932;28;20287;-75
2021/08/29 06:14:19;;;;;;;2.50;2.30;;;13.90;99.90;;;;;;6266909;28;20196;-74
2021/08/29 06:17:26;;;;;;;2.47;2.03;;;14.00;99.90;;;;;;6241286;28;20666;-76
2021/08/29 06:20:28;;;;;;;2.30;2.10;;;14.00;99.90;;;;;;6289785;28;20219;-78
2021/08/29 06:23:30;;;;;;;2.27;2.07;;;14.10;99.90;;;;;;6274006;28;20198;-78
2021/08/29 06:27:11;;;;;;;1.97;1.87;;;14.10;99.90;;;;;;6274345;28;20210;-78
2021/08/29 06:30:33;;;;;;;2.17;1.97;;;14.20;99.90;;;;;;6254471;28;20275;-78
2021/08/29 06:33:54;;;;;;;2.30;2.10;;;14.20;99.90;;;;;;6263963;28;20196;-78
2021/08/29 06:36:59;;;;;;;2.40;2.20;;;14.30;99.90;;;;;;6271472;28;20352;-79
2021/08/29 06:40:01;;;;;;;2.20;2.00;;;14.30;99.90;;;;;;6276785;28;20206;-82
2021/08/29 06:43:04;;;;;;;2.60;2.40;;;14.40;99.90;;;;;;6257005;28;20218;-78
2021/08/29 06:46:29;;;;;;;2.50;2.30;;;14.50;99.90;;;;;;6262694;28;20192;-78
2021/08/29 06:50:01;;;;;;;2.03;1.90;;;14.60;99.90;;;;;;6222592;28;20213;-80
2021/08/29 06:53:22;;;;;;;2.40;2.20;;;14.80;99.90;;;;;;6246895;28;20223;-79
2021/08/29 06:56:42;;;;;;;1.83;1.73;;;14.90;99.90;;;;;;6263461;28;20223;-80
2021/08/29 06:59:52;;;;;;;2.73;2.53;;;15.00;99.90;;;;;;6271387;28;20200;-79
2021/08/29 07:02:55;;;;;;;2.07;1.90;;;15.10;99.90;;;;;;6252242;28;20675;-79
2021/08/29 07:05:58;;;;;;;2.57;2.07;;;15.20;99.90;;;;;;6265211;28;20196;-80
2021/08/29 07:09:20;;;;;;;2.30;1.80;;;15.40;99.90;;;;;;6253043;28;20690;-79
2021/08/29 07:12:24;;;;;;;4.20;2.07;;;15.60;99.90;;;;;;6222850;28;20205;-78
2021/08/29 07:15:50;;;;;;;2.27;1.73;;;15.80;99.90;;;;;;6242978;28;20207;-79
2021/08/29 07:18:53;;;;;;;3.67;2.00;;;16.00;99.90;;;;;;6269996;28;20207;-79
2021/08/29 07:22:22;;;;;;;2.07;1.90;;;16.20;99.90;;;;;;6236728;28;20330;-79
2021/08/29 07:25:42;;;;;;;2.63;2.43;;;16.20;99.90;;;;;;6262718;28;20200;-79
2021/08/29 07:29:20;;;;;;;2.40;2.20;;;16.40;99.90;;;;;;6221287;28;20585;-79
2021/08/29 07:32:55;;;;;;;3.17;2.10;;;16.40;99.90;;;;;;6237157;28;20258;-79
2021/08/29 07:36:01;;;;;;;10.80;6.40;;;16.50;99.90;;;;;;6269370;28;20294;-80
2021/08/29 07:39:11;;;;;;;3.27;2.70;;;16.50;99.90;;;;;;6273461;28;20241;-81
2021/08/29 07:42:14;;;;;;;2.80;2.60;;;16.50;99.90;;;;;;6256585;28;20269;-80
2021/08/29 07:45:16;;;;;;;3.40;2.40;;;16.50;99.90;;;;;;6277610;28;20203;-77
2021/08/29 07:48:19;;;;;;;3.73;3.40;;;16.50;99.90;;;;;;6254984;28;20606;-78
2021/08/29 07:51:21;;;;;;;3.63;2.90;;;16.50;99.90;;;;;;6271880;28;20194;-78
2021/08/29 07:54:46;;;;;;;3.13;2.83;;;16.50;99.90;;;;;;6247166;28;20204;-78
2021/08/29 07:58:07;;;;;;;3.30;2.70;;;16.30;99.90;;;;;;6255582;28;20187;-78
2021/08/29 08:01:10;;;;;;;2.67;2.40;;;16.20;99.90;;;;;;6273249;28;20235;-78
2021/08/29 08:04:12;;;;;;;3.13;2.83;;;16.30;99.90;;;;;;6263144;28;20246;-78
2021/08/29 08:07:41;;;;;;;2.70;2.50;;;16.40;99.90;;;;;;6224252;28;20562;-78
2021/08/29 08:11:02;;;;;;;5.43;2.93;;;16.50;99.90;;;;;;6238998;28;20178;-78
2021/08/29 08:14:06;;;;;;;3.07;2.80;;;16.60;99.90;;;;;;6272333;28;20202;-78
2021/08/29 08:17:10;;;;;;;3.60;3.30;;;16.70;99.90;;;;;;6255442;28;20658;-78
2021/08/29 08:20:16;;;;;;;2.90;2.70;;;16.80;99.90;;;;;;6237584;28;20565;-78
2021/08/29 08:23:32;;;;;;;3.17;2.97;;;16.80;99.90;;;;;;6246640;28;20223;-78
2021/08/29 08:27:04;;;;;;;3.07;2.87;;;16.90;99.90;;;;;;6244999;28;20208;-79
2021/08/29 08:30:27;;;;;;;3.23;2.93;;;16.90;99.90;;;;;;6259832;28;20657;-79
2021/08/29 08:33:47;;;;;;;3.70;2.90;;;17.00;99.90;;;;;;6259103;28;20196;-79
2021/08/29 08:37:04;;;;;;;2.80;2.60;;;17.20;99.90;;;;;;6244883;28;20185;-79
2021/08/29 08:40:23;;;;;;;3.17;2.87;;;17.50;99.90;;;;;;6270422;28;20195;-79
2021/08/29 08:43:30;;;;;;;4.23;2.80;;;17.70;99.90;;;;;;6269615;28;20680;-78
2021/08/29 08:47:11;;;;;;;3.20;2.90;;;17.90;99.90;;;;;;6221093;28;20200;-78
2021/08/29 08:50:35;;;;;;;3.13;2.83;;;18.00;99.90;;;;;;6236864;28;20200;-79
2021/08/29 08:53:59;;;;;;;2.80;2.60;;;18.00;99.90;;;;;;6261117;28;20202;-79
2021/08/29 08:57:26;;;;;;;2.50;2.30;;;18.10;99.90;;;;;;6271834;28;20558;-78
2021/08/29 09:00:54;;;;;;;3.10;2.80;;;18.40;99.90;;;;;;6257097;28;20235;-78
2021/08/29 09:04:29;;;;;;;2.60;2.40;;;18.60;99.40;;;;;;6259372;28;20192;-79
2021/08/29 09:07:32;;;;;;;2.37;2.17;;;19.00;99.50;;;;;;6254584;28;20199;-79
2021/08/29 09:10:34;;;;;;;2.63;2.30;;;19.40;99.00;;;;;;6263447;28;20243;-79
2021/08/29 09:13:49;;;;;;;2.33;2.13;;;19.70;98.00;;;;;;6265739;28;20752;-78
2021/08/29 09:16:52;;;;;;;2.30;2.20;;;19.80;97.20;;;;;;6204447;28;20186;-78
2021/08/29 09:20:23;;;;;;;3.83;2.40;;;19.80;97.20;;;;;;6220913;28;20185;-78
2021/08/29 09:23:30;;;;;;;2.40;2.20;;;19.60;96.40;;;;;;6220468;28;20265;-79
2021/08/29 09:26:51;;;;;;;2.87;2.57;;;19.50;97.50;;;;;;6222365;28;20177;-80
2021/08/29 09:30:02;;;;;;;3.17;2.87;;;19.30;96.80;;;;;;6245659;28;20274;-77
2021/08/29 09:33:05;;;;;;;2.83;2.63;;;18.90;97.10;;;;;;6265624;28;20203;-79
2021/08/29 09:36:10;;;;;;;3.23;2.93;;;18.80;97.30;;;;;;6255113;28;20204;-77
2021/08/29 09:39:42;;;;;;;2.70;2.50;;;18.80;97.70;;;;;;6275181;28;20298;-78
2021/08/29 09:42:55;;;;;;;3.20;2.40;;;18.70;97.60;;;;;;6229122;28;20667;-77
2021/08/29 09:46:08;;;;;;;3.40;2.87;;;18.70;97.60;;;;;;6236110;28;20192;-79
2021/08/29 09:49:36;;;;;;;3.40;3.10;;;18.70;97.80;;;;;;6260196;28;20194;-78
2021/08/29 09:52:48;;;;;;;2.83;2.63;;;18.80;97.90;;;;;;6253453;28;20543;-77
2021/08/29 09:56:09;;;;;;;3.10;2.73;;;19.00;97.30;;;;;;6253645;28;20199;-79
2021/08/29 09:59:44;;;;;;;3.10;2.90;;;19.00;97.50;;;;;;6270321;28;20238;-78
2021/08/29 10:03:06;;;;;;;3.33;3.03;;;19.30;97.60;;;;;;6250437;28;20215;-78
2021/08/29 10:06:30;;;;;;;2.50;2.30;;;19.60;96.70;;;;;;6255691;28;20196;-78
2021/08/29 10:09:32;;;;;;;2.83;2.63;;;19.80;96.00;;;;;;6269011;28;20183;-79
2021/08/29 10:12:43;;;;;;;3.20;2.90;;;20.00;95.20;;;;;;6261302;28;20212;-78
2021/08/29 10:15:50;;;;;;;2.70;2.50;;;20.00;95.40;;;;;;6254860;28;20564;-78
2021/08/29 10:19:14;;;;;;;2.53;2.33;;;20.10;96.00;;;;;;6269575;28;20522;-80
2021/08/29 10:22:36;;;;;;;3.77;3.10;;;20.20;95.30;;;;;;6274041;28;20583;-79
2021/08/29 10:25:40;;;;;;;2.67;2.47;;;20.20;95.00;;;;;;6273071;28;20210;-79
2021/08/29 10:29:18;;;;;;;2.87;2.67;;;20.30;95.60;;;;;;6224132;28;20224;-80
2021/08/29 10:33:03;;;;;;;3.80;2.90;;;20.60;95.10;;;;;;6269672;28;20566;-80
2021/08/29 10:36:22;;;;;;;3.00;2.23;;;20.90;93.90;;;;;;6248408;28;20193;-79
2021/08/29 10:39:50;;;;;;;2.63;2.43;;;20.90;94.00;;;;;;6242856;28;20196;-79
2021/08/29 10:43:32;;;;;;;2.93;2.73;;;20.90;93.30;;;;;;6264717;28;20740;-78
2021/08/29 10:47:10;;;;;;;2.30;2.17;;;20.80;93.00;;;;;;6222076;28;20351;-78
2021/08/29 10:50:31;;;;;;;4.57;2.20;;;20.70;93.30;;;;;;6272650;28;20192;-79
2021/08/29 10:53:41;;;;;;;2.33;2.13;;;20.60;92.60;;;;;;6273822;28;20191;-78
2021/08/29 10:56:47;;;;;;;3.33;2.00;;;20.60;93.70;;;;;;6257171;28;20203;-77
2021/08/29 11:00:07;;;;;;;3.27;2.20;;;20.70;93.30;;;;;;6272893;28;20201;-80
2021/08/29 11:03:27;;;;;;;2.13;1.93;;;20.90;93.20;;;;;;6267392;28;20267;-78
2021/08/29 11:06:52;;;;;;;2.10;1.90;;;21.10;92.50;;;;;;6220676;28;20209;-78
2021/08/29 11:09:54;;;;;;;1.90;1.80;;;21.60;92.50;;;;;;6268835;28;20206;-81
2021/08/29 11:12:57;;;;;;;2.03;1.83;;;22.00;90.50;;;;;;6245333;28;20208;-81
2021/08/29 11:16:12;;;;;;;2.17;1.70;;;22.50;91.00;;;;;;6274138;28;20621;-82
2021/08/29 11:19:41;;;;;;;1.80;1.60;;;22.50;86.40;;;;;;6255914;28;20699;-81
2021/08/29 11:22:48;;;;;;;1.87;1.77;;;22.30;85.80;;;;;;6262166;28;20561;-82
2021/08/29 11:26:32;;;;;;;1.80;1.60;;;22.30;88.00;;;;;;6272525;28;20199;-81
2021/08/29 11:29:56;;;;;;;1.60;1.50;;;22.80;85.40;;;;;;6272922;28;20563;-82
2021/08/29 11:33:09;;;;;;;1.83;1.67;;;22.80;82.30;;;;;;6252104;28;20208;-81
2021/08/29 11:36:29;;;;;;;1.60;1.50;;;22.60;82.90;;;;;;6259044;28;20253;-81
2021/08/29 11:39:36;;;;;;;1.33;1.23;;;23.00;82.60;;;;;;6252169;28;20197;-80
2021/08/29 11:43:33;;;;;;;2.00;1.70;;;23.30;82.30;;;;;;6246567;28;20216;-81
2021/08/29 11:46:39;;;;;;;1.50;1.40;;;23.40;82.20;;;;;;6253344;28;20282;-82
2021/08/29 11:49:55;;;;;;;1.53;1.40;;;23.70;80.00;;;;;;6271894;28;20204;-81
2021/08/29 11:53:00;;;;;;;2.97;1.50;;;24.00;78.40;;;;;;6264314;28;20271;-81
2021/08/29 11:56:06;;;;;;;1.57;1.47;;;23.90;77.10;;;;;;6235442;28;20202;-82
2021/08/29 11:59:09;;;;;;;1.90;1.70;;;23.80;76.00;;;;;;6269552;28;20199;-81
2021/08/29 12:02:19;;;;;;;1.10;1.00;;;23.20;75.40;;;;;;6263228;28;20565;-82
2021/08/29 12:05:33;;;;;;;0.53;0.50;;;21.80;74.20;;;;;;6246950;28;20674;-83
2021/08/29 12:09:16;;;;;;;0.50;0.50;;;20.40;73.50;;;;;;6236881;28;20634;-82
2021/08/29 12:12:39;;;;;;;0.70;0.70;;;19.10;79.00;;;;;;6225514;28;20676;-80
2021/08/29 12:15:56;;;;;;;0.60;0.50;;;17.90;91.10;;;;;;6254160;28;20196;-80
2021/08/29 12:19:33;;;;;;;2.93;0.83;;;16.70;95.90;;;;;;6211977;28;20244;-78
2021/08/29 12:23:05;;;;;;;1.83;0.90;;;15.80;99.90;;;;;;6271416;28;20231;-80
2021/08/29 12:26:10;;;;;;;0.67;0.67;;;15.20;99.90;;;;;;6271164;28;20184;-80
2021/08/29 12:29:17;;;;;;;1.17;0.57;;;14.90;99.90;;;;;;6253387;28;20195;-79
2021/08/29 12:32:25;;;;;;;0.73;0.73;;;14.70;99.90;;;;;;6270131;28;20587;-79
2021/08/29 12:35:27;;;;;;;1.57;0.90;;;14.50;99.90;;;;;;6265698;28;20199;-79
2021/08/29 12:38:30;;;;;;;0.90;0.90;;;14.40;99.90;;;;;;6270411;28;20199;-79
2021/08/29 12:41:34;;;;;;;1.57;0.70;;;14.40;99.90;;;;;;6269079;28;20206;-79
2021/08/29 12:44:37;;;;;;;0.87;0.70;;;14.60;99.90;;;;;;6252189;28;20199;-79
2021/08/29 12:47:44;;;;;;;0.90;0.90;;;14.90;99.90;;;;;;6269349;28;20610;-80
2021/08/29 12:50:53;;;;;;;0.70;0.70;;;15.30;99.90;;;;;;6269764;28;20706;-79
2021/08/29 12:54:00;;;;;;;0.77;0.77;;;15.70;99.90;;;;;;6252905;28;20187;-79
2021/08/29 12:57:06;;;;;;;2.37;1.10;;;16.20;99.90;;;;;;6253424;28;20203;-79
2021/08/29 13:00:09;;;;;;;1.40;1.17;;;16.70;99.90;;;;;;6246313;28;20553;-79
2021/08/29 13:03:11;;;;;;;1.23;1.13;;;17.20;99.90;;;;;;6278465;28;20240;-79
2021/08/29 13:06:21;;;;;;;1.83;1.63;;;17.90;99.90;;;;;;6264238;28;20299;-78
2021/08/29 13:09:25;;;;;;;1.70;1.60;;;18.90;99.90;;;;;;6238221;28;20200;-78
2021/08/29 13:12:29;;;;;;;1.53;1.33;;;19.80;99.90;;;;;;6257387;28;20547;-78
2021/08/29 13:15:33;;;;;;;1.60;1.50;;;20.60;99.90;;;;;;6264843;28;20219;-78
2021/08/29 13:18:36;;;;;;;1.83;1.53;;;21.50;99.90;;;;;;6269825;28;20207;-79
2021/08/29 13:21:40;;;;;;;1.80;1.47;;;22.30;99.90;;;;;;6250212;28;20597;-79
2021/08/29 13:24:45;;;;;;;1.23;1.13;;;22.70;99.90;;;;;;6246278;28;20184;-79
2021/08/29 13:27:56;;;;;;;1.30;1.20;;;23.00;99.90;;;;;;6238253;28;20193;-78
2021/08/29 13:31:07;;;;;;;2.00;1.20;;;23.50;99.30;;;;;;6227450;28;20222;-78
2021/08/29 13:34:09;;;;;;;1.80;1.30;;;23.40;97.20;;;;;;6268715;28;20188;-78
2021/08/29 13:37:12;;;;;;;1.33;1.23;;;23.10;97.20;;;;;;6263348;28;20191;-79
2021/08/29 13:40:18;;;;;;;1.70;1.60;;;22.50;96.30;;;;;;6269356;28;20241;-78
2021/08/29 13:43:36;;;;;;;1.80;1.70;;;22.10;97.50;;;;;;6270811;28;20203;-78
2021/08/29 13:46:39;;;;;;;2.00;1.80;;;21.60;98.00;;;;;;6269747;28;20710;-78
2021/08/29 13:49:42;;;;;;;1.40;1.30;;;21.10;98.50;;;;;;6269922;28;20205;-78
2021/08/29 13:52:46;;;;;;;1.63;1.20;;;20.80;99.40;;;;;;6270108;28;20187;-78
2021/08/29 13:55:48;;;;;;;1.60;1.50;;;20.50;99.90;;;;;;6273710;28;20218;-78
2021/08/29 13:58:51;;;;;;;1.53;1.43;;;20.30;99.90;;;;;;6274451;28;20206;-79
2021/08/29 14:01:53;;;;;;;1.70;1.60;;;20.10;99.90;;;;;;6275569;28;20191;-78
2021/08/29 14:04:56;;;;;;;1.70;1.60;;;19.90;99.90;;;;;;6275636;28;20194;-78
2021/08/29 14:08:00;;;;;;;1.90;1.80;;;20.00;99.90;;;;;;6275068;28;20553;-78
2021/08/29 14:11:05;;;;;;;2.03;1.67;;;20.40;99.90;;;;;;6275091;28;20206;-78
2021/08/29 14:14:07;;;;;;;1.60;1.50;;;21.20;99.90;;;;;;6270942;28;20200;-79
2021/08/29 14:17:09;;;;;;;2.17;1.40;;;21.80;98.30;;;;;;6250142;28;20227;-79
2021/08/29 14:20:13;;;;;;;2.27;1.43;;;21.80;97.00;;;;;;6263744;28;20204;-79
2021/08/29 14:23:15;;;;;;;1.77;1.67;;;21.50;96.80;;;;;;6241734;28;20233;-79
2021/08/29 14:26:18;;;;;;;1.60;1.50;;;21.00;97.10;;;;;;6293492;28;20227;-79
2021/08/29 14:29:23;;;;;;;1.87;1.73;;;20.50;97.00;;;;;;6279588;28;20195;-79
2021/08/29 14:32:26;;;;;;;1.50;1.40;;;20.20;98.70;;;;;;6278490;28;20226;-79
2021/08/29 14:35:28;;;;;;;2.17;1.53;;;20.20;98.70;;;;;;6253565;28;20662;-79
2021/08/29 14:38:31;;;;;;;1.80;1.70;;;20.40;98.30;;;;;;6264554;28;20563;-79
2021/08/29 14:41:35;;;;;;;1.60;1.50;;;21.00;97.70;;;;;;6278188;28;20255;-79
2021/08/29 14:44:37;;;;;;;3.00;1.60;;;21.00;95.90;;;;;;6277256;28;20208;-80
2021/08/29 14:47:39;;;;;;;1.50;1.40;;;21.70;95.90;;;;;;6274640;28;20207;-79
2021/08/29 14:50:42;;;;;;;1.87;1.27;;;22.10;95.10;;;;;;6280861;28;20212;-79
2021/08/29 14:53:46;;;;;;;1.40;1.30;;;21.60;95.70;;;;;;6252124;28;20249;-79
2021/08/29 14:56:48;;;;;;;1.40;1.30;;;20.90;96.60;;;;;;6286527;28;20252;-80
2021/08/29 14:59:50;;;;;;;1.47;1.37;;;20.40;96.80;;;;;;6277686;28;20286;-80
2021/08/29 15:02:53;;;;;;;2.23;1.43;;;19.90;97.90;;;;;;6291994;28;20215;-80
2021/08/29 15:06:01;;;;;;;1.90;1.57;;;19.50;99.00;;;;;;6274000;28;20246;-80
2021/08/29 15:09:04;;;;;;;1.70;1.60;;;19.30;99.90;;;;;;6246331;28;20228;-80
2021/08/29 15:12:06;;;;;;;1.93;1.60;;;19.40;99.90;;;;;;6228048;28;20215;-80
2021/08/29 15:15:09;;;;;;;1.50;1.40;;;19.50;99.90;;;;;;6245683;28;20234;-79
2021/08/29 15:18:12;;;;;;;1.50;1.40;;;20.30;98.50;;;;;;6261516;28;20766;-79
2021/08/29 15:21:15;;;;;;;0.80;0.80;;;21.30;96.00;;;;;;6276940;28;20228;-79
2021/08/29 15:24:18;;;;;;;2.13;0.90;;;21.30;94.80;;;;;;6274850;28;20246;-79
2021/08/29 15:27:20;;;;;;;0.97;0.90;;;20.90;95.70;;;;;;6278741;28;20196;-79
2021/08/29 15:30:23;;;;;;;1.00;0.70;;;20.20;94.00;;;;;;6278832;28;20215;-79
2021/08/29 15:33:27;;;;;;;0.80;0.80;;;19.60;93.80;;;;;;6274388;28;20191;-79
2021/08/29 15:36:33;;;;;;;0.90;0.80;;;19.20;95.00;;;;;;6244517;28;20204;-79
2021/08/29 15:39:38;;;;;;;0.87;0.80;;;18.60;95.30;;;;;;6231860;28;20230;-79
2021/08/29 15:42:41;;;;;;;2.63;1.03;;;18.30;96.20;;;;;;6271973;28;20238;-79
2021/08/29 15:45:45;;;;;;;1.23;1.03;;;18.10;96.20;;;;;;6279856;28;20206;-79
2021/08/29 15:48:48;;;;;;;1.03;0.93;;;17.80;97.00;;;;;;6255948;28;20196;-79
2021/08/29 15:51:51;;;;;;;1.10;1.00;;;17.50;96.90;;;;;;6278156;28;20192;-79
2021/08/29 15:54:54;;;;;;;2.70;1.27;;;17.30;98.40;;;;;;6265657;28;20374;-79
2021/08/29 15:57:56;;;;;;;2.10;1.50;;;17.20;98.90;;;;;;6277946;28;20198;-80
2021/08/29 16:01:01;;;;;;;1.20;1.10;;;17.10;99.20;;;;;;6283197;28;20586;-80
2021/08/29 16:04:05;;;;;;;1.40;1.30;;;16.90;99.10;;;;;;6266800;28;20258;-79
2021/08/29 16:07:07;;;;;;;1.50;1.37;;;16.80;99.90;;;;;;6277358;28;20282;-79
2021/08/29 16:10:11;;;;;;;1.30;1.20;;;16.60;99.90;;;;;;6285155;28;20186;-79
2021/08/29 16:13:14;;;;;;;1.50;1.40;;;16.50;99.90;;;;;;6280823;28;20199;-79
2021/08/29 16:16:16;;;;;;;1.47;1.37;;;16.30;99.90;;;;;;6262596;28;20204;-79
2021/08/29 16:19:20;;;;;;;2.30;1.20;;;16.00;99.90;;;;;;6251923;28;20193;-79
2021/08/29 16:22:23;;;;;;;1.23;1.17;;;15.70;99.90;;;;;;6263042;28;20219;-79
2021/08/29 16:25:26;;;;;;;5.27;1.67;;;15.50;99.90;;;;;;6281192;28;20271;-79
2021/08/29 16:28:28;;;;;;;1.70;1.00;;;15.40;99.90;;;;;;6258789;28;20549;-79
2021/08/29 16:31:30;;;;;;;2.00;1.23;;;15.30;99.90;;;;;;6271507;28;20568;-79